createdAt,value
2022-12-31T00:00:24.044Z,52.23
2022-12-31T00:02:50.558Z,52.59
2022-12-31T00:05:17.073Z,52.54
2022-12-31T00:10:09.271Z,52.38
2022-12-31T00:12:35.656Z,52.39
2022-12-31T00:15:02.119Z,52.08
2022-12-31T00:17:28.612Z,52.38
2022-12-31T00:19:54.993Z,52.46
2022-12-31T00:22:21.458Z,52.36
2022-12-31T00:24:47.893Z,52.33
2022-12-31T00:27:14.254Z,52.53
2022-12-31T00:29:40.636Z,52.31
2022-12-31T00:32:07.860Z,52.15
2022-12-31T00:34:34.451Z,52.41
2022-12-31T00:37:00.949Z,52.18
2022-12-31T00:39:27.357Z,52.09
2022-12-31T00:41:54.021Z,52.13
2022-12-31T00:44:20.764Z,52.18
2022-12-31T00:46:48.429Z,52.19
2022-12-31T00:49:15.016Z,52.25
2022-12-31T00:51:41.747Z,52.08
2022-12-31T00:54:09.198Z,52.36
2022-12-31T00:56:35.551Z,52.36
2022-12-31T00:59:01.972Z,51.69
2022-12-31T01:01:34.262Z,52.62
2022-12-31T01:04:12.134Z,52.26
2022-12-31T01:06:39.222Z,52.19
2022-12-31T01:09:07.107Z,52.33
2022-12-31T01:11:34.110Z,52.11
2022-12-31T01:14:05.109Z,52.28
2022-12-31T01:16:41.242Z,52.62
2022-12-31T01:19:11.278Z,52.86
2022-12-31T01:21:39.862Z,52.57
2022-12-31T01:24:06.730Z,53.12
2022-12-31T01:26:33.125Z,52.74
2022-12-31T01:28:59.548Z,53.17
2022-12-31T01:31:29.217Z,53.09
2022-12-31T01:33:55.743Z,53.47
2022-12-31T01:36:26.284Z,53.52
2022-12-31T01:38:56.713Z,53.50
2022-12-31T01:41:26.969Z,53.68
2022-12-31T01:43:57.094Z,53.70
2022-12-31T01:46:52.214Z,54.36
2022-12-31T01:49:41.109Z,53.88
2022-12-31T01:52:15.745Z,54.40
2022-12-31T01:54:51.682Z,54.63
2022-12-31T01:57:18.675Z,53.71
2022-12-31T01:59:45.620Z,53.73
2022-12-31T02:02:13.829Z,53.86
2022-12-31T02:04:40.326Z,54.05
2022-12-31T02:07:08.539Z,54.18
2022-12-31T02:09:38.610Z,54.27
2022-12-31T02:12:06.797Z,54.20
2022-12-31T02:14:41.906Z,54.74
2022-12-31T02:17:24.591Z,54.30
2022-12-31T02:20:12.749Z,54.70
2022-12-31T02:22:42.223Z,54.13
2022-12-31T02:25:28.312Z,54.65
2022-12-31T02:28:19.087Z,54.70
2022-12-31T02:30:50.522Z,54.36
2022-12-31T02:33:22.867Z,54.66
2022-12-31T02:36:04.284Z,54.84
2022-12-31T02:38:38.452Z,54.73
2022-12-31T02:41:05.153Z,54.14
2022-12-31T02:43:32.953Z,54.38
2022-12-31T02:46:21.428Z,54.44
2022-12-31T02:49:16.115Z,54.66
2022-12-31T02:52:03.050Z,54.62
2022-12-31T02:54:44.399Z,54.42
2022-12-31T02:57:39.085Z,54.52
2022-12-31T03:00:27.759Z,54.24
2022-12-31T03:02:55.731Z,54.07
2022-12-31T03:05:29.496Z,54.23
2022-12-31T03:07:56.076Z,53.97
2022-12-31T03:10:22.535Z,53.78
2022-12-31T03:12:49.827Z,53.85
2022-12-31T03:15:22.341Z,53.94
2022-12-31T03:18:03.245Z,53.92
2022-12-31T03:20:57.904Z,53.73
2022-12-31T03:23:33.807Z,53.63
2022-12-31T03:26:01.064Z,53.30
2022-12-31T03:28:29.698Z,53.34
2022-12-31T03:30:57.365Z,53.53
2022-12-31T03:33:25.628Z,53.07
2022-12-31T03:35:53.550Z,53.15
2022-12-31T03:38:20.589Z,53.26
2022-12-31T03:40:53.733Z,53.60
2022-12-31T03:45:51.777Z,53.55
2022-12-31T03:48:18.768Z,53.33
2022-12-31T03:50:45.444Z,53.29
2022-12-31T03:53:11.888Z,53.30
2022-12-31T03:55:38.637Z,53.55
2022-12-31T03:58:05.222Z,53.55
2022-12-31T04:00:31.864Z,53.55
2022-12-31T04:02:59.846Z,53.75
2022-12-31T04:05:26.525Z,53.66
2022-12-31T04:07:53.080Z,53.75
2022-12-31T04:10:20.755Z,53.72
2022-12-31T04:12:48.300Z,53.64
2022-12-31T04:15:20.749Z,54.07
2022-12-31T04:17:48.127Z,53.96
2022-12-31T04:20:15.384Z,53.94
2022-12-31T04:22:42.657Z,53.85
2022-12-31T04:25:13.405Z,53.66
2022-12-31T04:27:41.384Z,53.61
2022-12-31T04:30:08.293Z,53.64
2022-12-31T04:32:34.664Z,53.55
2022-12-31T04:35:01.193Z,53.37
2022-12-31T04:37:27.768Z,53.16
2022-12-31T04:39:54.305Z,53.06
2022-12-31T04:42:20.731Z,53.10
2022-12-31T04:44:47.063Z,52.99
2022-12-31T04:47:15.271Z,52.91
2022-12-31T04:49:44.797Z,52.64
2022-12-31T04:52:11.251Z,52.67
2022-12-31T04:54:37.559Z,52.51
2022-12-31T04:57:04.083Z,52.30
2022-12-31T04:59:30.545Z,52.24
2022-12-31T05:01:57.058Z,52.07
2022-12-31T05:04:23.769Z,52.18
2022-12-31T05:06:50.375Z,52.15
2022-12-31T05:09:16.852Z,52.34
2022-12-31T05:11:43.321Z,52.34
2022-12-31T05:14:10.061Z,52.36
2022-12-31T05:16:36.893Z,52.54
2022-12-31T05:19:06.203Z,52.38
2022-12-31T05:21:32.967Z,52.25
2022-12-31T05:23:59.694Z,52.23
2022-12-31T05:26:26.226Z,52.18
2022-12-31T05:28:52.863Z,52.12
2022-12-31T05:31:19.280Z,51.96
2022-12-31T05:33:46.016Z,51.73
2022-12-31T05:36:14.807Z,51.85
2022-12-31T05:38:41.509Z,51.67
2022-12-31T05:41:08.417Z,51.88
2022-12-31T05:43:35.086Z,51.15
2022-12-31T05:46:03.239Z,51.03
2022-12-31T05:48:31.488Z,50.84
2022-12-31T05:50:58.601Z,50.87
2022-12-31T05:53:25.018Z,50.77
2022-12-31T05:55:51.572Z,50.70
2022-12-31T05:58:18.013Z,50.38
2022-12-31T06:00:44.807Z,49.92
2022-12-31T06:03:11.429Z,49.81
2022-12-31T06:05:44.087Z,49.40
2022-12-31T06:08:12.032Z,49.01
2022-12-31T06:10:39.280Z,49.19
2022-12-31T06:13:06.119Z,49.16
2022-12-31T06:15:32.954Z,48.93
2022-12-31T06:17:59.436Z,48.80
2022-12-31T06:20:25.882Z,48.61
2022-12-31T06:22:52.248Z,48.50
2022-12-31T06:25:18.732Z,47.91
2022-12-31T06:27:45.164Z,48.06
2022-12-31T06:30:12.124Z,47.92
2022-12-31T06:32:39.343Z,47.66
2022-12-31T06:35:06.782Z,47.91
2022-12-31T06:37:33.337Z,47.95
2022-12-31T06:39:59.781Z,47.61
2022-12-31T06:42:29.692Z,47.27
2022-12-31T06:44:56.651Z,47.72
2022-12-31T06:47:23.036Z,47.52
2022-12-31T06:49:49.389Z,47.51
2022-12-31T06:52:15.869Z,47.46
2022-12-31T06:54:42.693Z,47.27
2022-12-31T06:57:09.847Z,47.22
2022-12-31T06:59:36.433Z,47.22
2022-12-31T07:02:14.176Z,47.32
2022-12-31T07:05:04.646Z,46.95
2022-12-31T07:08:16.097Z,47.01
2022-12-31T07:11:12.188Z,46.62
2022-12-31T07:13:59.997Z,46.57
2022-12-31T07:16:55.155Z,46.62
2022-12-31T07:19:29.300Z,46.82
2022-12-31T07:21:58.698Z,46.79
2022-12-31T07:24:25.676Z,46.86
2022-12-31T07:27:07.287Z,46.82
2022-12-31T07:30:21.789Z,46.42
2022-12-31T07:33:12.846Z,46.76
2022-12-31T07:35:51.170Z,46.59
2022-12-31T07:38:38.458Z,46.74
2022-12-31T07:41:13.454Z,46.77
2022-12-31T07:43:59.778Z,46.63
2022-12-31T07:46:39.680Z,46.47
2022-12-31T07:49:11.642Z,46.38
2022-12-31T07:51:39.001Z,46.61
2022-12-31T07:54:11.835Z,46.52
2022-12-31T07:56:40.540Z,46.43
2022-12-31T07:59:45.713Z,46.49
2022-12-31T08:02:27.339Z,46.08
2022-12-31T08:05:06.526Z,46.43
2022-12-31T08:07:51.301Z,46.05
2022-12-31T08:10:31.345Z,45.97
2022-12-31T08:13:02.849Z,45.88
2022-12-31T08:15:30.704Z,46.14
2022-12-31T08:17:57.946Z,45.96
2022-12-31T08:20:26.640Z,45.71
2022-12-31T08:23:01.723Z,45.92
2022-12-31T08:25:43.533Z,45.48
2022-12-31T08:28:15.750Z,45.42
2022-12-31T08:31:00.971Z,45.46
2022-12-31T08:33:38.741Z,45.01
2022-12-31T08:36:20.332Z,45.31
2022-12-31T08:39:20.968Z,45.34
2022-12-31T08:41:54.815Z,45.12
2022-12-31T08:44:33.589Z,45.00
2022-12-31T08:47:08.885Z,45.04
2022-12-31T08:49:35.709Z,45.34
2022-12-31T08:52:03.092Z,45.01
2022-12-31T08:54:30.056Z,45.02
2022-12-31T08:57:33.614Z,44.86
2022-12-31T09:00:03.700Z,44.48
2022-12-31T09:02:47.718Z,44.90
2022-12-31T09:05:30.032Z,44.79
2022-12-31T09:08:08.222Z,44.35
2022-12-31T09:11:07.999Z,44.67
2022-12-31T09:14:11.200Z,44.30
2022-12-31T09:16:48.658Z,43.99
2022-12-31T09:19:15.508Z,44.00
2022-12-31T09:21:44.394Z,44.34
2022-12-31T09:24:15.366Z,43.77
2022-12-31T09:27:27.803Z,43.75
2022-12-31T09:30:11.514Z,43.79
2022-12-31T09:33:05.558Z,43.42
2022-12-31T09:35:45.292Z,43.18
2022-12-31T09:38:39.206Z,43.31
2022-12-31T09:41:46.732Z,43.30
2022-12-31T09:44:34.946Z,43.25
2022-12-31T09:47:01.236Z,43.38
2022-12-31T09:49:58.792Z,43.32
2022-12-31T09:52:34.528Z,43.15
2022-12-31T09:55:40.148Z,43.22
2022-12-31T09:58:18.677Z,43.23
2022-12-31T10:01:17.431Z,43.59
2022-12-31T10:04:09.713Z,43.37
2022-12-31T10:07:04.767Z,43.50
2022-12-31T10:09:54.044Z,43.35
2022-12-31T10:12:33.069Z,44.10
2022-12-31T10:15:33.822Z,43.49
2022-12-31T10:18:29.222Z,43.36
2022-12-31T10:21:16.882Z,43.64
2022-12-31T10:24:08.575Z,43.38
2022-12-31T10:27:14.547Z,43.39
2022-12-31T10:29:48.412Z,43.59
2022-12-31T10:32:38.672Z,43.10
2022-12-31T10:35:29.948Z,42.84
2022-12-31T10:38:09.247Z,43.21
2022-12-31T10:41:00.186Z,43.42
2022-12-31T10:44:09.230Z,43.66
2022-12-31T10:47:17.239Z,43.43
2022-12-31T10:50:10.674Z,43.13
2022-12-31T10:52:41.523Z,43.51
2022-12-31T10:55:49.684Z,43.26
2022-12-31T10:58:34.602Z,43.15
2022-12-31T11:01:17.504Z,42.99
2022-12-31T11:03:55.712Z,42.85
2022-12-31T11:06:52.442Z,42.88
2022-12-31T11:09:34.541Z,42.81
2022-12-31T11:12:19.936Z,42.54
2022-12-31T11:15:15.516Z,42.47
2022-12-31T11:18:05.065Z,42.68
2022-12-31T11:20:56.436Z,42.43
2022-12-31T11:24:11.304Z,42.89
2022-12-31T11:27:13.317Z,42.61
2022-12-31T11:29:58.307Z,42.33
2022-12-31T11:33:06.121Z,42.34
2022-12-31T11:36:02.237Z,41.96
2022-12-31T11:38:33.427Z,42.17
2022-12-31T11:41:10.054Z,41.99
2022-12-31T11:43:48.256Z,41.86
2022-12-31T11:46:14.837Z,42.17
2022-12-31T11:49:02.308Z,42.37
2022-12-31T11:52:21.191Z,42.18
2022-12-31T11:55:12.711Z,42.01
2022-12-31T11:57:42.051Z,42.01
2022-12-31T12:00:19.721Z,41.81
2022-12-31T12:03:01.229Z,42.02
2022-12-31T12:05:28.250Z,42.03
2022-12-31T12:07:55.105Z,41.91
2022-12-31T12:10:44.244Z,41.83
2022-12-31T12:13:22.138Z,41.63
2022-12-31T12:15:52.309Z,41.52
2022-12-31T12:18:40.977Z,41.51
2022-12-31T12:21:25.188Z,41.63
2022-12-31T12:23:59.792Z,41.59
2022-12-31T12:26:46.624Z,41.65
2022-12-31T12:29:19.403Z,41.38
2022-12-31T12:31:59.193Z,41.50
2022-12-31T12:34:29.251Z,41.66
2022-12-31T12:36:55.709Z,41.67
2022-12-31T12:39:28.532Z,41.82
2022-12-31T12:42:10.432Z,42.17
2022-12-31T12:44:37.214Z,42.22
2022-12-31T12:47:09.037Z,42.13
2022-12-31T12:49:46.028Z,42.09
2022-12-31T12:52:26.955Z,42.59
2022-12-31T12:55:02.514Z,42.60
2022-12-31T12:57:38.459Z,42.99
2022-12-31T13:00:32.259Z,43.14
2022-12-31T13:02:58.531Z,43.12
2022-12-31T13:06:05.351Z,43.48
2022-12-31T13:09:16.513Z,43.71
2022-12-31T13:12:14.371Z,44.09
2022-12-31T13:15:09.959Z,44.00
2022-12-31T13:17:54.056Z,44.26
2022-12-31T13:20:35.201Z,44.69
2022-12-31T13:23:17.375Z,45.01
2022-12-31T13:26:02.703Z,45.14
2022-12-31T13:28:31.982Z,44.93
2022-12-31T13:31:07.058Z,44.97
2022-12-31T13:33:39.305Z,45.09
2022-12-31T13:36:11.769Z,45.26
2022-12-31T13:38:51.531Z,45.30
2022-12-31T13:41:24.915Z,45.22
2022-12-31T13:44:14.463Z,45.16
2022-12-31T13:46:46.862Z,45.52
2022-12-31T13:49:31.409Z,45.99
2022-12-31T13:52:14.664Z,45.40
2022-12-31T13:55:09.948Z,45.28
2022-12-31T13:57:39.261Z,44.96
2022-12-31T14:00:14.445Z,45.12
2022-12-31T14:02:47.853Z,45.23
2022-12-31T14:05:23.247Z,44.98
2022-12-31T14:07:55.773Z,44.79
2022-12-31T14:10:36.368Z,44.68
2022-12-31T14:13:22.731Z,44.35
2022-12-31T14:16:07.035Z,44.69
2022-12-31T14:18:44.858Z,44.19
2022-12-31T14:21:24.897Z,44.23
2022-12-31T14:24:00.423Z,43.71
2022-12-31T14:26:32.997Z,43.55
2022-12-31T14:29:06.846Z,43.29
2022-12-31T14:31:44.891Z,43.26
2022-12-31T14:34:35.592Z,43.45
2022-12-31T14:37:28.863Z,42.88
2022-12-31T14:40:12.866Z,42.78
2022-12-31T14:42:54.731Z,42.61
2022-12-31T14:45:27.784Z,42.92
2022-12-31T14:48:17.110Z,42.61
2022-12-31T14:50:47.010Z,42.73
2022-12-31T14:53:24.667Z,42.20
2022-12-31T14:56:26.698Z,42.04
2022-12-31T14:58:58.041Z,41.60
2022-12-31T15:01:26.342Z,42.27
2022-12-31T15:03:57.289Z,42.05
2022-12-31T15:06:23.710Z,42.29
2022-12-31T15:09:13.663Z,42.19
2022-12-31T15:12:04.717Z,42.46
2022-12-31T15:15:08.668Z,42.58
2022-12-31T15:17:53.733Z,42.35
2022-12-31T15:20:38.964Z,42.61
2022-12-31T15:23:19.493Z,42.60
2022-12-31T15:25:49.495Z,42.92
2022-12-31T15:28:36.567Z,43.23
2022-12-31T15:31:23.476Z,43.39
2022-12-31T15:34:24.730Z,43.33
2022-12-31T15:36:54.607Z,43.39
2022-12-31T15:39:38.273Z,43.56
2022-12-31T15:42:37.729Z,43.38
2022-12-31T15:45:12.845Z,43.76
2022-12-31T15:47:47.491Z,43.97
2022-12-31T15:50:22.242Z,44.05
2022-12-31T15:52:59.847Z,44.17
2022-12-31T15:55:32.652Z,44.38
2022-12-31T15:58:05.138Z,44.40
2022-12-31T16:00:58.103Z,44.66
2022-12-31T16:03:27.647Z,44.57
2022-12-31T16:06:01.969Z,44.60
2022-12-31T16:08:34.264Z,44.90
2022-12-31T16:11:08.635Z,44.80
2022-12-31T16:13:41.164Z,44.90
2022-12-31T16:16:19.620Z,44.83
2022-12-31T16:18:46.611Z,44.70
2022-12-31T16:21:45.511Z,44.73
2022-12-31T16:24:33.125Z,45.00
2022-12-31T16:27:07.408Z,44.85
2022-12-31T16:29:36.842Z,44.72
2022-12-31T16:32:03.960Z,44.71
2022-12-31T16:34:36.981Z,44.86
2022-12-31T16:37:07.373Z,44.76
2022-12-31T16:39:38.987Z,44.64
2022-12-31T16:42:14.989Z,44.58
2022-12-31T16:44:41.963Z,44.55
2022-12-31T16:47:16.527Z,44.37
2022-12-31T16:49:43.318Z,44.47
2022-12-31T16:52:25.509Z,44.30
2022-12-31T16:54:54.213Z,44.43
2022-12-31T16:57:23.987Z,44.32
2022-12-31T16:59:57.549Z,44.48
2022-12-31T17:02:35.353Z,44.26
2022-12-31T17:05:02.645Z,44.17
2022-12-31T17:07:31.971Z,44.14
2022-12-31T17:10:07.556Z,43.92
2022-12-31T17:12:53.079Z,43.96
2022-12-31T17:15:30.394Z,43.90
2022-12-31T17:18:01.082Z,43.77
2022-12-31T17:20:30.351Z,43.84
2022-12-31T17:23:00.587Z,43.77
2022-12-31T17:25:30.153Z,43.85
2022-12-31T17:28:19.953Z,43.43
2022-12-31T17:30:46.751Z,43.85
2022-12-31T17:33:13.211Z,44.20
2022-12-31T17:35:42.396Z,43.48
2022-12-31T17:38:20.623Z,43.26
2022-12-31T17:40:51.605Z,43.32
2022-12-31T17:43:20.760Z,43.36
2022-12-31T17:45:47.481Z,43.76
2022-12-31T17:48:17.297Z,43.09
2022-12-31T17:50:58.172Z,43.01
2022-12-31T17:53:25.052Z,42.91
2022-12-31T17:55:54.912Z,42.85
2022-12-31T17:58:35.847Z,42.96
2022-12-31T18:01:05.883Z,42.62
2022-12-31T18:03:32.568Z,42.81
2022-12-31T18:05:58.978Z,42.88
2022-12-31T18:08:25.362Z,42.80
2022-12-31T18:10:53.949Z,42.70
2022-12-31T18:13:22.755Z,43.17
2022-12-31T18:15:49.693Z,42.42
2022-12-31T18:18:24.363Z,42.05
2022-12-31T18:20:55.222Z,41.89
2022-12-31T18:23:27.782Z,41.75
2022-12-31T18:25:54.642Z,41.73
2022-12-31T18:28:21.141Z,41.38
2022-12-31T18:30:48.120Z,41.57
2022-12-31T18:33:19.816Z,41.39
2022-12-31T18:36:08.428Z,41.44
2022-12-31T18:38:34.525Z,41.80
2022-12-31T18:41:00.977Z,41.04
2022-12-31T18:43:28.617Z,41.01
2022-12-31T18:45:55.160Z,41.26
2022-12-31T18:48:21.965Z,41.26
2022-12-31T18:50:49.625Z,41.08
2022-12-31T18:53:18.705Z,40.93
2022-12-31T18:55:50.980Z,40.47
2022-12-31T18:58:17.449Z,40.74
2022-12-31T19:00:44.314Z,40.60
2022-12-31T19:03:16.233Z,40.12
2022-12-31T19:05:43.092Z,40.39
2022-12-31T19:08:09.794Z,40.40
2022-12-31T19:10:36.346Z,40.00
2022-12-31T19:13:03.069Z,40.23
2022-12-31T19:15:38.996Z,39.87
2022-12-31T19:18:05.670Z,40.02
2022-12-31T19:20:32.179Z,40.04
2022-12-31T19:22:58.677Z,39.98
2022-12-31T19:25:28.188Z,39.87
2022-12-31T19:27:54.750Z,39.53
2022-12-31T19:30:24.486Z,39.53
2022-12-31T19:32:51.630Z,39.85
2022-12-31T19:35:19.285Z,39.58
2022-12-31T19:37:48.143Z,39.44
2022-12-31T19:40:22.354Z,39.31
2022-12-31T19:42:50.554Z,39.53
2022-12-31T19:45:22.188Z,38.86
2022-12-31T19:47:49.257Z,39.22
2022-12-31T19:50:19.277Z,39.11
2022-12-31T19:52:50.719Z,39.16
2022-12-31T19:55:19.679Z,38.86
2022-12-31T19:57:48.474Z,38.92
2022-12-31T20:00:17.213Z,39.16
2022-12-31T20:02:46.779Z,38.83
2022-12-31T20:05:15.276Z,38.83
2022-12-31T20:07:42.410Z,38.81
2022-12-31T20:10:09.424Z,38.51
2022-12-31T20:12:43.908Z,38.70
2022-12-31T20:15:11.350Z,38.66
2022-12-31T20:17:37.930Z,38.58
2022-12-31T20:20:06.843Z,38.33
2022-12-31T20:22:33.716Z,38.48
2022-12-31T20:25:00.257Z,38.19
2022-12-31T20:27:26.851Z,38.20
2022-12-31T20:29:53.220Z,38.38
2022-12-31T20:32:19.727Z,38.08
2022-12-31T20:34:46.102Z,38.12
2022-12-31T20:37:12.736Z,37.87
2022-12-31T20:39:39.114Z,37.68
2022-12-31T20:42:05.644Z,37.72
2022-12-31T20:44:32.085Z,37.39
2022-12-31T20:46:58.463Z,37.25
2022-12-31T20:49:52.077Z,37.01
2022-12-31T20:52:11.499Z,37.27
2022-12-31T20:54:39.320Z,37.08
2022-12-31T20:57:06.149Z,36.70
2022-12-31T20:59:32.566Z,36.89
2022-12-31T21:04:46.832Z,36.89
2022-12-31T21:07:13.456Z,36.67
2022-12-31T21:09:39.964Z,36.77
2022-12-31T21:12:27.211Z,36.73
2022-12-31T21:14:53.562Z,36.67
2022-12-31T21:17:20.071Z,36.68
2022-12-31T21:19:46.940Z,36.48
2022-12-31T21:22:13.474Z,36.23
2022-12-31T21:24:39.890Z,36.25
2022-12-31T21:27:07.178Z,36.28
2022-12-31T21:29:34.904Z,36.20
2022-12-31T21:32:03.744Z,36.18
2022-12-31T21:34:30.151Z,36.12
2022-12-31T21:36:56.523Z,36.06
2022-12-31T21:39:23.409Z,35.89
2022-12-31T21:41:52.748Z,35.79
2022-12-31T21:44:21.034Z,35.74
2022-12-31T21:47:25.023Z,35.82
2022-12-31T21:49:35.230Z,35.63
2022-12-31T21:52:20.190Z,35.91
2022-12-31T21:55:05.445Z,35.84
2022-12-31T21:57:46.219Z,35.52
2022-12-31T22:00:42.832Z,35.41
2022-12-31T22:03:24.299Z,35.15
2022-12-31T22:05:53.374Z,35.20
2022-12-31T22:08:21.876Z,35.14
2022-12-31T22:10:52.527Z,35.03
2022-12-31T22:13:19.708Z,35.15
2022-12-31T22:15:49.142Z,34.97
2022-12-31T22:18:16.706Z,35.00
2022-12-31T22:20:43.357Z,35.13
2022-12-31T22:23:10.233Z,35.06
2022-12-31T22:25:40.856Z,35.04
2022-12-31T22:30:54.290Z,34.96
2022-12-31T22:33:20.713Z,35.02
2022-12-31T22:35:58.129Z,34.35
2022-12-31T22:38:25.745Z,35.02
2022-12-31T22:40:52.422Z,35.41
2022-12-31T22:43:18.951Z,35.18
2022-12-31T22:45:45.334Z,35.06
2022-12-31T22:48:11.736Z,34.92
2022-12-31T22:50:40.530Z,34.93
2022-12-31T22:53:06.888Z,35.04
2022-12-31T22:55:33.360Z,35.20
2022-12-31T22:57:59.790Z,35.22
2022-12-31T23:00:44.495Z,35.16
2022-12-31T23:03:11.138Z,35.13
2022-12-31T23:05:37.727Z,35.01
2022-12-31T23:08:11.849Z,34.83
2022-12-31T23:11:01.495Z,34.96
2022-12-31T23:13:50.912Z,34.79
2022-12-31T23:16:36.672Z,35.14
2022-12-31T23:19:21.653Z,34.98
2022-12-31T23:22:06.953Z,35.07
2022-12-31T23:24:33.546Z,34.88
2022-12-31T23:26:59.940Z,34.98
2022-12-31T23:29:27.604Z,34.99
2022-12-31T23:31:54.961Z,34.76
2022-12-31T23:34:22.644Z,35.06
2022-12-31T23:36:49.046Z,34.70
2022-12-31T23:39:15.495Z,34.76
2022-12-31T23:41:41.870Z,34.66
2022-12-31T23:44:10.025Z,34.58
2022-12-31T23:46:36.342Z,34.52
2022-12-31T23:49:02.741Z,34.46
2022-12-31T23:51:29.456Z,34.57
2022-12-31T23:53:55.854Z,34.35
2022-12-31T23:56:24.027Z,34.41
2022-12-31T23:58:57.942Z,34.34
